Time;durP1;ratioP1;P1;durP2;ratioP2;P2;SDS_P1;SDS_P2;PMS_P1;PMS_P2;Temp;Humidity;BMP_temperature;BMP_pressure;BME280_temperature;BME280_humidity;BME280_pressure;Samples;Min_cycle;Max_cycle;Signal;HPM_P1;HPM_P2
2021/05/26 00:01:24;;;;;;;3.13;1.98;;;11.40;99.70;;;12.11;56.28;98019.25;5203465;28;20232;-63
2021/05/26 00:03:58;;;;;;;2.58;1.90;;;11.50;99.50;;;12.16;56.13;98018.69;5199266;28;20693;-64
2021/05/26 00:06:30;;;;;;;2.13;2.00;;;11.50;99.70;;;12.23;55.90;98008.78;5206294;28;20234;-64
2021/05/26 00:09:04;;;;;;;1.88;1.75;;;11.50;99.70;;;12.21;56.24;98010.38;5207105;28;20224;-64
2021/05/26 00:11:37;;;;;;;2.15;2.00;;;11.50;99.70;;;12.20;56.81;98014.63;5205855;28;20300;-64
2021/05/26 00:14:10;;;;;;;3.33;2.05;;;11.50;99.90;;;12.22;56.68;98004.44;5207663;28;20598;-64
2021/05/26 00:16:42;;;;;;;2.10;2.00;;;11.50;99.90;;;12.12;57.23;98003.94;5206496;28;20549;-64
2021/05/26 00:19:16;;;;;;;2.67;1.92;;;11.40;99.90;;;12.17;56.97;98009.31;5207387;28;20684;-63
2021/05/26 00:21:48;;;;;;;2.10;2.00;;;11.40;99.90;;;12.12;57.61;98003.94;5205500;28;20653;-64
2021/05/26 00:24:21;;;;;;;3.17;2.20;;;11.40;99.90;;;12.11;57.51;97997.06;5206999;28;20607;-64
2021/05/26 00:26:53;;;;;;;2.40;2.20;;;11.40;99.90;;;12.26;56.80;97999.56;5205410;28;20284;-63
2021/05/26 00:29:26;;;;;;;2.28;2.15;;;11.40;99.90;;;12.31;56.75;97992.13;5206165;28;20312;-64
2021/05/26 00:31:58;;;;;;;2.28;2.08;;;11.50;99.90;;;12.46;56.24;98003.16;5205680;28;20204;-63
2021/05/26 00:34:32;;;;;;;2.38;2.17;;;11.70;99.90;;;12.47;56.71;98010.03;5207405;28;20749;-64
2021/05/26 00:37:05;;;;;;;2.88;2.08;;;11.70;99.90;;;12.50;56.18;97999.06;5204391;28;20292;-63
2021/05/26 00:39:38;;;;;;;1.73;1.63;;;11.70;99.90;;;12.40;56.51;97997.72;5206196;28;20575;-64
2021/05/26 00:42:11;;;;;;;3.05;2.05;;;11.70;99.90;;;12.48;56.55;97996.44;5205991;28;20198;-63
2021/05/26 00:44:43;;;;;;;2.28;2.10;;;11.70;99.90;;;12.40;56.88;97982.34;5205986;28;20194;-64
2021/05/26 00:47:38;;;;;;;2.55;1.95;;;11.70;99.90;;;12.51;56.47;97982.91;5206347;28;20281;-63
2021/05/26 00:50:16;;;;;;;2.47;2.15;;;11.80;99.90;;;12.53;56.10;97979.63;5205482;28;20292;-64
2021/05/26 00:52:49;;;;;;;2.13;1.90;;;11.70;99.90;;;12.59;55.83;97979.03;5205851;28;20304;-63
2021/05/26 00:55:22;;;;;;;2.28;2.08;;;11.80;99.70;;;12.44;56.27;97979.13;5204755;28;20202;-64
2021/05/26 00:57:56;;;;;;;2.03;1.83;;;11.70;99.90;;;12.44;57.31;97984.25;5197583;28;20194;-63
2021/05/26 01:00:31;;;;;;;2.33;1.80;;;11.70;99.90;;;12.36;57.65;97977.84;5205762;28;20210;-63
2021/05/26 01:03:05;;;;;;;1.95;1.85;;;11.60;99.90;;;12.34;57.81;97977.78;5205605;28;20221;-63
2021/05/26 01:05:39;;;;;;;2.63;2.20;;;11.60;99.90;;;12.36;57.53;97970.16;5199734;28;20216;-63
2021/05/26 01:08:11;;;;;;;2.30;2.10;;;11.60;99.90;;;12.36;57.75;97970.16;5209535;28;20224;-64
2021/05/26 01:10:44;;;;;;;1.80;1.70;;;11.60;99.90;;;12.37;57.37;97969.38;5205266;28;20205;-64
2021/05/26 01:13:19;;;;;;;2.90;1.98;;;11.60;99.90;;;12.39;57.49;97965.22;5205595;28;20297;-64
2021/05/26 01:15:51;;;;;;;2.22;2.13;;;11.50;99.90;;;12.36;57.36;97959.91;5198575;28;20193;-63
2021/05/26 01:18:26;;;;;;;2.80;2.20;;;11.60;99.90;;;12.32;58.18;97956.31;5206299;28;20209;-64
2021/05/26 01:21:01;;;;;;;1.90;1.80;;;11.50;99.90;;;12.29;58.67;97950.16;5204859;28;20197;-64
2021/05/26 01:23:37;;;;;;;2.42;1.83;;;11.50;99.90;;;12.25;58.92;97945.69;5205507;28;20228;-64
2021/05/26 01:26:10;;;;;;;2.00;1.77;;;11.50;99.90;;;12.25;59.46;97958.50;5204619;28;20292;-64
2021/05/26 01:28:42;;;;;;;3.05;1.77;;;11.40;99.90;;;12.20;60.82;97957.38;5206093;28;20752;-64
2021/05/26 01:31:15;;;;;;;1.90;1.80;;;11.40;99.90;;;12.16;61.64;97954.66;5204487;28;20190;-64
2021/05/26 01:33:48;;;;;;;3.08;2.25;;;11.40;99.90;;;12.11;63.35;97961.19;5205844;28;20210;-64
2021/05/26 01:36:20;;;;;;;3.50;2.10;;;11.30;99.90;;;12.03;65.36;97965.03;5202051;28;20290;-64
2021/05/26 01:38:54;;;;;;;2.65;2.00;;;11.30;99.90;;;12.05;67.23;97972.81;5205012;28;20276;-61
2021/05/26 01:41:27;;;;;;;2.08;1.92;;;11.20;99.90;;;12.00;66.49;97975.13;5196901;28;20660;-64
2021/05/26 01:43:59;;;;;;;2.67;1.90;;;11.20;99.90;;;12.08;66.15;97978.09;5204853;28;20306;-63
2021/05/26 01:46:32;;;;;;;2.83;2.35;;;11.20;99.90;;;11.90;66.59;97972.84;5204216;28;20292;-64
2021/05/26 01:49:05;;;;;;;2.90;2.28;;;11.20;99.90;;;11.92;66.91;97978.94;5204477;28;20224;-64
2021/05/26 01:51:38;;;;;;;2.33;2.20;;;11.20;99.90;;;11.97;67.22;97984.34;5204186;28;20284;-63
2021/05/26 01:54:12;;;;;;;2.20;2.10;;;11.30;99.90;;;11.80;68.11;97981.69;5204220;28;20317;-64
2021/05/26 01:56:45;;;;;;;2.90;1.92;;;11.20;99.90;;;11.64;69.78;97985.09;5205355;28;20212;-63
2021/05/26 01:59:18;;;;;;;3.50;2.13;;;11.10;99.90;;;11.54;69.05;97982.84;5205510;28;20285;-64
2021/05/26 02:01:50;;;;;;;2.30;2.10;;;10.90;99.90;;;11.51;69.18;97977.56;5204346;28;20659;-64
2021/05/26 02:04:23;;;;;;;2.55;2.35;;;11.00;99.90;;;11.50;69.26;97971.56;5203961;28;20348;-63
2021/05/26 02:07:03;;;;;;;4.82;2.72;;;10.90;99.90;;;11.38;70.63;97975.09;5203766;28;20205;-63
2021/05/26 02:09:37;;;;;;;3.03;2.30;;;10.90;99.90;;;11.36;71.37;97980.16;5205190;28;20220;-62
2021/05/26 02:12:21;;;;;;;2.58;2.33;;;10.70;99.90;;;11.24;72.08;97972.66;5204018;28;20281;-64
2021/05/26 02:14:56;;;;;;;2.65;2.28;;;10.60;99.90;;;11.14;72.41;97975.50;5204746;28;20194;-63
2021/05/26 02:17:29;;;;;;;2.70;2.47;;;10.50;99.90;;;10.98;73.78;97975.41;5198185;28;20197;-63
2021/05/26 02:20:03;;;;;;;3.60;2.22;;;10.40;99.90;;;10.86;75.87;97967.03;5203917;28;20198;-63
2021/05/26 02:22:36;;;;;;;4.88;2.40;;;10.30;99.90;;;10.76;76.75;97956.31;5223513;23;20216;-64
2021/05/26 02:25:12;;;;;;;4.38;2.92;;;10.20;99.90;;;10.70;76.60;97955.94;5224253;28;20201;-64
2021/05/26 02:27:45;;;;;;;2.83;2.20;;;10.10;99.90;;;10.69;78.32;97949.06;5225118;28;20288;-66
2021/05/26 02:30:17;;;;;;;2.70;2.22;;;10.10;99.90;;;10.66;77.16;97946.31;5224437;28;20692;-64
2021/05/26 02:32:50;;;;;;;1.83;1.73;;;10.10;99.90;;;10.64;78.08;97924.03;5216837;28;20321;-63
2021/05/26 02:35:23;;;;;;;2.50;2.10;;;10.10;99.90;;;10.63;76.41;97928.25;5202690;28;20189;-64
2021/05/26 02:37:55;;;;;;;3.28;2.60;;;10.00;99.90;;;10.60;77.99;97928.94;5198623;28;20661;-64
2021/05/26 02:40:32;;;;;;;3.47;2.50;;;10.00;99.90;;;10.57;78.02;97917.69;5203536;28;20194;-64
2021/05/26 02:43:05;;;;;;;3.43;2.17;;;9.90;99.90;;;10.68;76.22;97911.50;5204169;28;20222;-65
2021/05/26 02:45:38;;;;;;;3.80;2.90;;;9.90;99.90;;;10.60;77.74;97918.72;5203557;28;20221;-66
2021/05/26 02:48:11;;;;;;;2.25;2.08;;;9.90;99.90;;;10.71;77.32;97911.69;5204522;28;20202;-62
2021/05/26 02:50:45;;;;;;;3.58;2.10;;;9.90;99.90;;;10.65;76.68;97911.34;5196006;28;20284;-66
2021/05/26 02:53:17;;;;;;;2.85;2.20;;;9.90;99.90;;;10.84;75.10;97897.91;5204135;28;20305;-66
2021/05/26 02:55:51;;;;;;;2.55;2.35;;;10.00;99.90;;;11.01;74.73;97906.53;5203736;28;20200;-66
2021/05/26 02:58:23;;;;;;;3.40;2.42;;;10.10;99.90;;;11.09;74.53;97902.72;5201596;28;20196;-66
2021/05/26 03:00:56;;;;;;;2.55;2.30;;;10.30;99.90;;;10.92;73.51;97906.91;5207600;28;20244;-66
2021/05/26 03:03:28;;;;;;;3.92;2.38;;;10.30;99.90;;;10.88;75.48;97909.22;5206676;28;20305;-66
2021/05/26 03:06:01;;;;;;;4.22;2.40;;;10.10;99.90;;;10.85;74.89;97909.03;5205808;28;20197;-67
2021/05/26 03:08:34;;;;;;;4.33;2.67;;;10.20;99.90;;;10.71;76.11;97906.56;5208101;28;20222;-64
2021/05/26 03:11:07;;;;;;;3.80;2.10;;;10.00;99.90;;;10.55;76.91;97898.81;5208373;28;20547;-66
2021/05/26 03:13:40;;;;;;;2.17;2.07;;;9.90;99.90;;;10.45;77.32;97894.84;5207875;28;20218;-66
2021/05/26 03:16:12;;;;;;;2.65;2.45;;;9.80;99.90;;;10.78;75.36;97897.56;5207554;28;20197;-66
2021/05/26 03:18:46;;;;;;;2.80;2.30;;;10.00;99.90;;;10.58;76.86;97886.22;5208272;28;20204;-65
2021/05/26 03:21:19;;;;;;;2.90;2.15;;;9.90;99.90;;;10.50;77.72;97901.13;5207985;28;20202;-65
2021/05/26 03:23:52;;;;;;;3.13;2.20;;;9.90;99.90;;;10.71;77.36;97911.69;5207163;28;20312;-66
2021/05/26 03:26:25;;;;;;;2.58;2.38;;;9.90;99.90;;;10.66;76.46;97923.31;5204239;28;20194;-67
2021/05/26 03:28:57;;;;;;;3.47;2.40;;;9.90;99.90;;;10.71;78.95;97915.91;5206744;28;20317;-66
2021/05/26 03:31:31;;;;;;;3.93;2.33;;;9.90;99.90;;;10.85;77.07;97911.59;5207642;28;20196;-66
2021/05/26 03:34:05;;;;;;;2.70;2.50;;;10.00;99.90;;;10.99;75.86;97913.25;5207657;28;20216;-65
2021/05/26 03:36:38;;;;;;;2.57;2.37;;;10.10;99.90;;;10.92;77.00;97921.38;5198825;28;20285;-66
2021/05/26 03:39:11;;;;;;;2.40;2.20;;;10.20;99.90;;;10.86;77.42;97914.22;5202334;28;20186;-66
2021/05/26 03:41:44;;;;;;;2.80;2.40;;;10.10;99.90;;;10.96;75.93;97918.16;5207676;28;20720;-66
2021/05/26 03:44:17;;;;;;;1.90;1.80;;;10.30;99.90;;;10.81;77.92;97918.19;5207539;28;20745;-66
2021/05/26 03:46:50;;;;;;;3.05;2.22;;;10.20;99.90;;;10.81;77.87;97919.06;5207382;28;20221;-67
2021/05/26 03:49:22;;;;;;;2.38;2.17;;;10.10;99.90;;;10.71;78.22;97910.81;5207588;28;20220;-66
2021/05/26 03:51:55;;;;;;;2.42;2.00;;;10.10;99.90;;;10.68;78.88;97916.63;5206833;28;20281;-65
2021/05/26 03:54:28;;;;;;;2.33;2.13;;;10.10;99.90;;;10.63;80.25;97910.38;5205166;28;20202;-66
2021/05/26 03:57:01;;;;;;;2.50;2.30;;;10.10;99.90;;;10.62;80.26;97915.41;5207037;28;20578;-63
2021/05/26 03:59:34;;;;;;;2.42;2.20;;;10.00;99.90;;;10.60;80.38;97912.75;5200052;28;20293;-66
2021/05/26 04:02:07;;;;;;;2.55;2.28;;;10.00;99.90;;;10.55;81.55;97909.03;5207280;28;20640;-65
2021/05/26 04:04:41;;;;;;;3.08;2.47;;;10.00;99.90;;;10.58;81.68;97909.22;5207170;28;20200;-67
2021/05/26 04:07:13;;;;;;;2.20;2.00;;;9.90;99.90;;;10.55;82.19;97911.59;5205845;28;20288;-66
2021/05/26 04:09:46;;;;;;;3.55;2.28;;;9.90;99.90;;;10.60;82.23;97907.63;5206715;28;20727;-66
2021/05/26 04:12:19;;;;;;;3.15;2.35;;;10.00;99.90;;;10.56;83.44;97910.81;5207136;28;20309;-65
2021/05/26 04:14:52;;;;;;;2.38;2.17;;;9.90;99.90;;;10.53;83.85;97908.97;5203688;28;20284;-67
2021/05/26 04:17:25;;;;;;;2.90;2.70;;;9.90;99.90;;;10.45;85.55;97901.66;5206962;28;20283;-65
2021/05/26 04:20:03;;;;;;;2.88;2.33;;;9.80;99.90;;;10.38;85.51;97908.94;5207043;28;20725;-67
2021/05/26 04:22:36;;;;;;;3.13;2.83;;;9.80;99.90;;;10.37;86.44;97899.50;5206769;28;20577;-65
2021/05/26 04:25:10;;;;;;;2.70;2.50;;;9.80;99.90;;;10.32;86.66;97895.81;5207541;28;20256;-65
2021/05/26 04:27:45;;;;;;;2.45;2.25;;;9.80;99.90;;;10.41;86.36;97895.44;5204607;28;20616;-67
2021/05/26 04:30:19;;;;;;;2.83;2.63;;;9.70;99.90;;;10.51;85.38;97892.66;5205171;28;20706;-66
2021/05/26 04:32:52;;;;;;;2.95;2.65;;;9.70;99.90;;;10.50;84.66;97879.78;5207047;28;20309;-66
2021/05/26 04:35:25;;;;;;;3.15;2.88;;;9.80;99.90;;;10.37;85.84;97880.75;5206457;28;20202;-66
2021/05/26 04:37:58;;;;;;;2.73;2.40;;;9.80;99.90;;;10.26;86.80;97874.97;5202480;28;20203;-66
2021/05/26 04:40:31;;;;;;;2.53;2.27;;;9.70;99.90;;;10.29;87.25;97870.06;5205503;28;20212;-66
2021/05/26 04:43:04;;;;;;;2.50;2.30;;;9.70;99.90;;;10.29;86.89;97880.28;5205846;28;20218;-65
2021/05/26 04:45:37;;;;;;;2.77;2.57;;;9.70;99.90;;;10.29;88.24;97887.97;5207002;28;20284;-67
2021/05/26 04:48:10;;;;;;;3.77;2.60;;;9.70;99.90;;;10.27;88.87;97881.00;5204556;28;20249;-65
2021/05/26 04:50:43;;;;;;;3.03;2.50;;;9.70;99.90;;;10.43;87.53;97887.88;5202933;28;20310;-66
2021/05/26 04:53:15;;;;;;;4.50;2.73;;;9.70;99.90;;;10.42;86.46;97897.25;5197253;28;20599;-66
2021/05/26 04:55:48;;;;;;;4.33;3.00;;;9.70;99.90;;;10.44;86.11;97889.63;5201830;28;20210;-65
2021/05/26 04:58:21;;;;;;;3.37;2.70;;;9.70;99.90;;;10.42;87.98;97892.13;5198774;28;20202;-65
2021/05/26 05:00:54;;;;;;;3.53;2.80;;;9.70;99.90;;;10.40;88.52;97878.38;5202579;28;20284;-65
2021/05/26 05:03:27;;;;;;;2.97;2.60;;;9.70;99.90;;;10.51;85.49;97889.22;5203681;28;20701;-65
2021/05/26 05:05:59;;;;;;;4.50;2.53;;;9.80;99.90;;;10.55;86.12;97891.16;5199553;28;20199;-66
2021/05/26 05:08:32;;;;;;;3.88;2.40;;;9.80;99.90;;;10.64;86.20;97883.13;5202376;28;20296;-65
2021/05/26 05:11:05;;;;;;;4.77;2.77;;;9.90;99.90;;;10.51;85.48;97879.88;5203793;28;20214;-64
2021/05/26 05:13:39;;;;;;;3.47;2.70;;;9.90;99.90;;;10.48;87.54;97882.25;5202056;28;20289;-66
2021/05/26 05:16:11;;;;;;;3.03;2.45;;;9.90;99.90;;;10.57;86.42;97874.22;5202687;28;20289;-66
2021/05/26 05:18:46;;;;;;;5.13;2.83;;;9.90;99.90;;;10.42;87.18;97875.91;5204563;28;20200;-67
2021/05/26 05:21:18;;;;;;;3.27;2.97;;;9.90;99.90;;;10.46;87.29;97870.19;5203952;28;20239;-66
2021/05/26 05:23:51;;;;;;;2.72;2.35;;;9.80;99.90;;;10.47;87.73;97864.25;5203282;28;20316;-67
2021/05/26 05:26:24;;;;;;;3.25;2.92;;;9.90;99.90;;;10.59;85.79;97865.00;5204278;28;20265;-67
2021/05/26 05:28:57;;;;;;;2.90;2.70;;;9.90;99.90;;;10.65;85.01;97861.91;5201478;28;20198;-66
2021/05/26 05:31:31;;;;;;;3.20;2.90;;;10.00;99.90;;;10.56;86.25;97852.03;5198552;28;20205;-67
2021/05/26 05:34:04;;;;;;;3.90;3.03;;;9.90;99.90;;;10.58;86.91;97852.97;5202740;28;20309;-67
2021/05/26 05:36:36;;;;;;;2.75;2.53;;;9.90;99.90;;;10.66;85.94;97854.31;5203811;28;20572;-67
2021/05/26 05:39:09;;;;;;;4.32;3.00;;;10.00;99.90;;;10.60;87.19;97849.72;5203181;28;20194;-66
2021/05/26 05:41:44;;;;;;;4.18;2.80;;;9.90;99.90;;;10.57;87.00;97853.78;5203333;28;20190;-67
2021/05/26 05:44:17;;;;;;;2.60;2.40;;;9.90;99.90;;;10.54;86.25;97861.28;5196432;28;20220;-66
2021/05/26 05:46:50;;;;;;;3.13;2.83;;;9.80;99.90;;;10.53;86.64;97854.38;5201078;28;20635;-67
2021/05/26 05:49:23;;;;;;;3.15;2.85;;;9.90;99.90;;;10.52;87.42;97847.53;5204254;28;20227;-63
2021/05/26 05:51:55;;;;;;;4.27;2.60;;;9.90;99.90;;;10.58;87.08;97842.75;5202326;28;20204;-66
2021/05/26 05:54:28;;;;;;;3.07;2.87;;;9.80;99.90;;;10.62;86.00;97829.38;5205820;28;20233;-64
2021/05/26 05:57:01;;;;;;;5.40;3.00;;;9.80;99.90;;;10.46;87.61;97834.41;5204491;28;20204;-67
2021/05/26 05:59:34;;;;;;;4.28;2.58;;;9.90;99.90;;;10.47;89.01;97828.50;5204993;28;20258;-64
2021/05/26 06:02:07;;;;;;;5.13;2.93;;;9.80;99.90;;;10.46;88.50;97829.28;5202929;28;20294;-66
2021/05/26 06:04:40;;;;;;;3.20;2.78;;;9.80;99.90;;;10.51;89.79;97835.56;5204597;28;20237;-67
2021/05/26 06:07:12;;;;;;;2.40;2.20;;;9.80;99.90;;;10.53;90.27;97836.50;5199029;28;20206;-67
2021/05/26 06:09:45;;;;;;;3.50;2.47;;;9.90;99.90;;;10.58;90.50;97832.53;5200945;28;20317;-66
2021/05/26 06:12:18;;;;;;;2.65;2.45;;;9.90;99.90;;;10.56;89.46;97835.03;5205621;28;20301;-66
2021/05/26 06:14:52;;;;;;;3.63;2.58;;;10.00;99.90;;;10.73;87.70;97830.84;5198759;28;20191;-66
2021/05/26 06:17:25;;;;;;;3.10;2.57;;;10.00;99.90;;;10.67;88.10;97833.03;5205286;28;20199;-67
2021/05/26 06:19:57;;;;;;;3.10;2.72;;;10.00;99.90;;;10.69;88.49;97836.56;5203389;28;20202;-66
2021/05/26 06:22:30;;;;;;;2.97;2.63;;;10.00;99.90;;;10.79;88.43;97838.88;5203994;28;20794;-66
2021/05/26 06:25:03;;;;;;;4.65;2.60;;;10.10;99.90;;;10.81;89.20;97842.38;5202203;28;20198;-66
2021/05/26 06:27:35;;;;;;;4.72;2.65;;;10.10;99.90;;;10.84;88.81;97841.66;5203631;28;20280;-67
2021/05/26 06:30:11;;;;;;;3.28;2.60;;;10.10;99.90;;;10.87;89.16;97846.94;5202105;28;20230;-65
2021/05/26 06:32:44;;;;;;;3.90;2.70;;;10.10;99.90;;;10.93;87.74;97841.28;5195015;28;20253;-65
2021/05/26 06:35:17;;;;;;;4.17;2.83;;;10.10;99.90;;;10.78;87.65;97836.22;5204169;28;20681;-64
2021/05/26 06:37:49;;;;;;;3.35;2.95;;;10.10;99.90;;;10.74;88.64;97845.38;5203257;28;20194;-65
2021/05/26 06:40:22;;;;;;;4.10;2.80;;;10.10;99.90;;;10.70;89.81;97838.34;5210385;28;20221;-65
2021/05/26 06:42:55;;;;;;;2.88;2.50;;;10.10;99.90;;;10.73;90.39;97833.41;5204101;28;20304;-65
2021/05/26 06:45:29;;;;;;;2.90;2.70;;;10.10;99.90;;;10.74;90.00;97832.59;5202572;28;20232;-64
2021/05/26 06:48:02;;;;;;;3.38;2.70;;;10.10;99.90;;;10.72;90.78;97821.41;5202064;28;20204;-62
2021/05/26 06:50:34;;;;;;;4.38;3.00;;;10.10;99.90;;;10.77;91.58;97820.00;5196032;28;20305;-64
2021/05/26 06:53:07;;;;;;;4.15;2.70;;;10.10;99.90;;;10.88;91.17;97822.28;5201371;28;20214;-64
2021/05/26 06:55:39;;;;;;;4.15;3.05;;;10.20;99.90;;;10.92;91.80;97814.84;5201815;28;20223;-64
2021/05/26 06:58:12;;;;;;;2.72;2.30;;;10.20;99.90;;;10.96;92.22;97814.22;5197988;28;20218;-64
2021/05/26 07:00:46;;;;;;;2.92;2.42;;;10.20;99.90;;;10.98;91.41;97814.28;5198807;28;20200;-64
2021/05/26 07:03:18;;;;;;;4.97;3.00;;;10.30;99.90;;;11.03;91.78;97816.31;5188523;28;20229;-64
2021/05/26 07:05:51;;;;;;;3.15;2.70;;;10.30;99.90;;;11.10;91.42;97812.41;5191058;28;20397;-65
2021/05/26 07:08:23;;;;;;;3.80;2.85;;;10.40;99.90;;;11.16;90.62;97807.63;5193199;28;20202;-65
2021/05/26 07:10:56;;;;;;;4.75;2.30;;;10.40;99.90;;;11.41;87.89;97796.13;5192774;28;20221;-65
2021/05/26 07:13:29;;;;;;;2.95;2.50;;;10.50;99.90;;;11.41;85.92;97793.56;5202241;28;20228;-66
2021/05/26 07:16:02;;;;;;;3.35;2.35;;;10.60;99.90;;;11.25;87.52;97797.88;5201239;28;20202;-65
2021/05/26 07:18:35;;;;;;;4.45;2.47;;;10.60;99.90;;;11.37;87.71;97795.09;5201494;28;20300;-64
2021/05/26 07:21:08;;;;;;;4.05;2.70;;;10.70;99.90;;;11.43;87.36;97794.53;5192931;28;20576;-64
2021/05/26 07:23:40;;;;;;;3.38;2.58;;;10.70;99.90;;;11.42;87.92;97808.16;5200776;28;20673;-64
2021/05/26 07:26:13;;;;;;;5.32;3.00;;;10.80;99.90;;;11.39;89.88;97796.06;5199889;28;20224;-66
2021/05/26 07:28:45;;;;;;;3.13;2.83;;;10.80;99.90;;;11.45;89.39;97805.75;5197882;28;20202;-66
2021/05/26 07:31:19;;;;;;;5.40;2.65;;;10.80;99.90;;;11.52;89.94;97796.69;5200229;28;20214;-65
2021/05/26 07:33:53;;;;;;;3.90;2.88;;;10.80;99.90;;;11.47;89.81;97801.56;5200277;28;20217;-66
2021/05/26 07:36:25;;;;;;;3.08;2.38;;;10.80;99.90;;;11.52;90.29;97799.25;5198793;28;20619;-67
2021/05/26 07:38:58;;;;;;;4.03;2.90;;;10.90;99.90;;;11.52;88.62;97792.44;5200692;28;20202;-66
2021/05/26 07:41:31;;;;;;;3.95;2.53;;;10.80;99.90;;;11.54;90.04;97790.00;5200863;28;20186;-64
2021/05/26 07:44:05;;;;;;;3.88;2.63;;;10.90;99.90;;;11.62;90.01;97791.28;5201747;28;20222;-66
2021/05/26 07:46:38;;;;;;;4.55;2.95;;;10.90;99.90;;;11.55;89.61;97782.38;5199263;28;20194;-66
2021/05/26 07:49:11;;;;;;;3.22;2.92;;;10.90;99.90;;;11.54;90.45;97795.97;5205212;28;20588;-65
2021/05/26 07:51:49;;;;;;;2.90;2.10;;;10.80;99.90;;;11.69;87.82;97789.09;5205239;28;20237;-65
2021/05/26 07:54:23;;;;;;;7.13;3.10;;;11.00;99.90;;;11.54;88.42;97784.88;5205442;28;20289;-66
2021/05/26 07:56:56;;;;;;;2.97;2.70;;;10.90;99.90;;;11.48;90.39;97783.75;5205562;28;20201;-66
2021/05/26 07:59:29;;;;;;;4.72;3.13;;;10.90;99.90;;;11.56;90.82;97785.81;5194206;28;20198;-65
2021/05/26 08:02:02;;;;;;;3.67;2.78;;;10.90;99.90;;;11.62;91.66;97781.03;5196107;28;20233;-67
2021/05/26 08:04:35;;;;;;;3.85;3.22;;;10.90;99.90;;;11.68;91.94;97784.78;5198100;28;20208;-65
2021/05/26 08:07:09;;;;;;;4.47;3.30;;;10.90;99.90;;;11.77;90.57;97791.16;5201585;28;20198;-66
2021/05/26 08:09:41;;;;;;;3.25;2.95;;;11.00;99.90;;;11.81;89.41;97782.84;5203879;28;20198;-65
2021/05/26 08:12:14;;;;;;;5.20;3.33;;;11.10;99.90;;;11.77;90.27;97776.69;5202001;28;20214;-65
2021/05/26 08:14:47;;;;;;;6.05;3.45;;;11.10;99.90;;;11.76;89.50;97789.38;5203747;28;20692;-64
2021/05/26 08:17:21;;;;;;;5.53;3.67;;;11.10;99.90;;;11.71;88.97;97787.50;5204297;28;20206;-64
2021/05/26 08:19:53;;;;;;;3.60;3.03;;;11.00;99.90;;;11.81;87.84;97787.94;5204516;28;20202;-66
2021/05/26 08:22:26;;;;;;;4.13;3.10;;;11.00;99.90;;;11.79;87.47;97784.44;5222572;23;20316;-64
2021/05/26 08:24:59;;;;;;;4.00;3.30;;;11.10;99.90;;;11.80;87.14;97786.22;5217542;28;20730;-64
2021/05/26 08:27:32;;;;;;;12.55;9.40;;;11.20;99.90;;;11.71;87.48;97776.38;5220240;28;20731;-65
2021/05/26 08:30:06;;;;;;;5.22;3.65;;;11.10;99.90;;;11.67;87.81;97777.88;5218273;28;20236;-64
2021/05/26 08:32:40;;;;;;;5.60;3.65;;;11.00;99.90;;;11.71;88.69;97782.38;5225090;28;20220;-64
2021/05/26 08:35:13;;;;;;;7.38;4.75;;;11.10;99.90;;;11.75;88.26;97779.97;5224822;28;20713;-65
2021/05/26 08:37:46;;;;;;;6.20;3.92;;;11.20;99.90;;;11.76;87.29;97776.59;5222172;28;20207;-64
2021/05/26 08:40:20;;;;;;;20.10;18.52;;;11.20;99.90;;;11.80;87.96;97775.97;5223588;28;20225;-64
2021/05/26 08:42:54;;;;;;;6.10;5.15;;;11.20;99.90;;;11.86;87.35;97771.19;5218510;28;20209;-64
2021/05/26 08:45:26;;;;;;;6.10;3.92;;;11.30;99.90;;;11.81;86.88;97778.59;5224696;28;20202;-65
2021/05/26 08:48:05;;;;;;;4.15;3.50;;;11.30;99.90;;;11.79;87.64;97769.06;5224669;28;20198;-64
2021/05/26 08:50:40;;;;;;;6.50;5.18;;;11.20;99.90;;;11.78;89.50;97783.56;5223219;28;20695;-64
2021/05/26 08:53:12;;;;;;;4.40;4.00;;;11.20;99.90;;;11.71;88.33;97773.81;5222568;28;20208;-63
2021/05/26 08:55:45;;;;;;;6.60;3.40;;;11.10;99.90;;;11.76;87.73;97779.16;5223148;28;20217;-64
2021/05/26 08:58:18;;;;;;;7.13;4.18;;;11.10;99.90;;;11.70;87.58;97784.84;5224015;28;20205;-64
2021/05/26 09:00:51;;;;;;;5.00;3.70;;;11.10;99.90;;;11.67;85.03;97779.56;5225829;28;20230;-64
2021/05/26 09:03:24;;;;;;;6.85;4.25;;;11.00;99.90;;;11.60;85.51;97792.88;5223406;28;20301;-64
2021/05/26 09:05:57;;;;;;;7.07;3.78;;;11.10;99.90;;;11.55;86.50;97787.50;5224961;28;20660;-64
2021/05/26 09:08:30;;;;;;;7.43;4.13;;;10.90;99.90;;;11.44;87.40;97796.28;5223215;28;20199;-64
2021/05/26 09:11:04;;;;;;;5.55;3.63;;;10.90;99.90;;;11.43;88.54;97799.66;5220167;28;20193;-64
2021/05/26 09:13:40;;;;;;;6.57;4.20;;;10.80;99.90;;;11.38;87.45;97791.72;5228606;28;20307;-64
2021/05/26 09:16:31;;;;;;;6.05;3.92;;;10.70;99.90;;;11.31;86.74;97793.91;5226602;28;20287;-64
2021/05/26 09:19:08;;;;;;;8.13;5.45;;;10.70;99.90;;;11.29;86.48;97786.13;5225956;28;20243;-65
2021/05/26 09:21:44;;;;;;;9.15;3.58;;;10.70;99.90;;;11.24;87.56;97798.66;5221196;28;20296;-65
2021/05/26 09:24:30;;;;;;;6.80;4.43;;;10.60;99.90;;;11.18;86.95;97798.34;5226361;28;20728;-65
2021/05/26 09:27:05;;;;;;;5.88;4.00;;;10.60;99.90;;;11.08;87.73;97787.56;5226015;28;20201;-65
2021/05/26 09:29:41;;;;;;;6.28;4.03;;;10.50;99.90;;;11.04;88.04;97791.59;5213643;28;20296;-65
2021/05/26 09:32:20;;;;;;;6.73;3.73;;;10.50;99.90;;;11.11;87.76;97788.59;5224573;28;20631;-65
2021/05/26 09:34:57;;;;;;;5.93;3.97;;;10.50;99.90;;;11.18;88.43;97797.47;5225266;28;20205;-64
2021/05/26 09:37:34;;;;;;;5.10;3.77;;;10.50;99.90;;;11.04;90.39;97789.03;5222203;28;20205;-64
2021/05/26 09:40:10;;;;;;;8.10;4.83;;;10.50;99.90;;;11.12;90.92;97787.78;5219653;28;20228;-64
2021/05/26 09:42:46;;;;;;;6.20;3.57;;;10.40;99.90;;;11.14;90.66;97793.88;5222519;28;20245;-64
2021/05/26 09:45:23;;;;;;;7.50;4.50;;;10.50;99.90;;;11.10;91.19;97789.38;5226424;28;20232;-66
2021/05/26 09:47:58;;;;;;;6.32;4.00;;;10.50;99.90;;;11.06;93.23;97792.56;5224621;28;20219;-64
2021/05/26 09:50:34;;;;;;;6.03;4.10;;;10.50;99.90;;;11.03;92.59;97792.41;5222365;28;20656;-65
2021/05/26 09:53:10;;;;;;;6.03;4.15;;;10.50;99.90;;;11.24;93.70;97782.44;5225488;28;20221;-64
2021/05/26 09:55:45;;;;;;;7.28;3.88;;;10.60;99.90;;;11.12;91.94;97784.34;5220160;28;20193;-64
2021/05/26 09:58:19;;;;;;;6.10;4.10;;;10.50;99.90;;;11.14;94.38;97791.31;5221880;28;20188;-66
2021/05/26 10:00:51;;;;;;;6.43;4.38;;;10.50;99.90;;;11.16;94.86;97788.81;5222807;28;20228;-64
2021/05/26 10:03:24;;;;;;;6.15;3.80;;;10.50;99.90;;;11.20;92.98;97790.75;5223152;28;20217;-64
2021/05/26 10:05:58;;;;;;;4.90;4.10;;;10.50;99.90;;;11.16;93.48;97787.16;5216807;28;20276;-64
2021/05/26 10:08:31;;;;;;;5.80;5.00;;;10.50;99.90;;;11.09;94.27;97787.63;5220297;28;20208;-64
2021/05/26 10:11:04;;;;;;;6.70;4.72;;;10.50;99.90;;;11.15;94.72;97787.94;5222308;28;20281;-64
2021/05/26 10:13:37;;;;;;;5.00;4.20;;;10.50;99.90;;;11.12;94.37;97792.91;5222465;28;20304;-64
2021/05/26 10:16:10;;;;;;;8.00;5.10;;;10.40;99.90;;;11.10;94.30;97793.63;5222792;28;20280;-64
2021/05/26 10:18:43;;;;;;;6.38;4.72;;;10.40;99.90;;;11.12;95.51;97787.78;5218810;28;20245;-64
2021/05/26 10:21:21;;;;;;;5.72;4.70;;;10.40;99.90;;;11.19;95.18;97786.47;5220486;28;20617;-64
2021/05/26 10:23:55;;;;;;;10.63;8.90;;;10.50;99.90;;;11.16;94.93;97789.72;5220632;28;20320;-64
2021/05/26 10:26:59;;;;;;;6.65;4.63;;;10.50;99.90;;;11.27;96.72;97788.63;5223079;28;20288;-64
2021/05/26 10:29:47;;;;;;;3.92;2.95;;;10.60;99.90;;;11.37;94.41;97789.09;5223564;28;20539;-64
2021/05/26 10:32:29;;;;;;;5.75;3.72;;;10.70;99.90;;;11.41;93.80;97776.53;5222776;28;20247;-64
2021/05/26 10:35:06;;;;;;;5.38;3.30;;;10.70;99.90;;;11.31;94.72;97793.91;5223118;28;20571;-64
2021/05/26 10:37:43;;;;;;;6.70;4.05;;;10.70;99.90;;;11.41;95.85;97796.13;5217029;28;20347;-64
2021/05/26 10:40:42;;;;;;;4.95;3.78;;;10.70;99.90;;;11.38;96.13;97790.84;5215435;28;20197;-64
2021/05/26 10:43:32;;;;;;;12.98;11.68;;;10.70;99.90;;;11.39;96.35;97797.72;5220583;28;20594;-64
2021/05/26 10:46:06;;;;;;;7.45;6.78;;;10.70;99.90;;;11.41;95.79;97797.00;5218727;28;20201;-64
2021/05/26 10:49:08;;;;;;;7.47;6.78;;;10.80;99.90;;;11.54;95.36;97793.41;5217795;28;20212;-64